Terminal Aerodrome Forecast
Issued by NWS Pocatello, ID

Home | Current Version | Previous Version | Text Only | Print | Product List | Glossary On
Versions: 1 2 3 4 5 6 7 8 9 10 11 12 13 14 15 16
274
FTUS45 KPIH 241950 AAA
TAFBYI
TAF AMD
KBYI 241950Z 2420/2518 28008KT P6SM -SHRA VCTS SCT060 BKN100CB
     FM250500 VRB05KT P6SM SCT090=

USA.gov is the U.S. government's official web portal to all federal, state and local government web resources and services.